Seisyu Maru — JD3882 — position and weather

sailwx.info

Track history (hours):
 
Tides and Currents Weather Stations Pressure Air Temp Water Temp Dewpoint Dewpoint Depression Visibility Wind Speed Wind Dir Waves Ship Positions

Seisyu Maru

Last reported at 2018-Jun-15 21:42 UTC. Time now 2018-Jun-25 11:22 UTC.
Position N 33°48' E 135°04'.
Warning: this ship's position is 9 days out of date.

Length 84 m; draft 4.5 m.

Type: Cargo ship. MMSI: 431006647.

Date/timePositionNaut miles runAvg speedWind from/ knotsBaromVisibWave heightAir tempDewpointWater temp
2018-Jun-15 21:42N 33°48' E 135°04'313.1
2018-Jun-15 21:31N 33°50' E 135°02'612.1
2018-Jun-15 21:00N 33°56' E 134°60'612.6
2018-Jun-15 20:30N 34°02' E 134°58'612.8
2018-Jun-15 20:00N 34°08' E 134°59'714.4
2018-Jun-15 19:30N 34°15' E 134°58'713.2
2018-Jun-15 19:00N 34°22' E 134°60'713.0
2018-Jun-15 18:31N 34°28' E 135°01'713.4
2018-Jun-15 18:01N 34°35' E 135°03'610.9
2018-Jun-15 17:29N 34°35' E 134°56'612.2
2018-Jun-15 17:01N 34°33' E 134°49'612.3
2018-Jun-15 16:31N 34°30' E 134°43'612.1
2018-Jun-15 16:01N 34°28' E 134°36'612.1
2018-Jun-15 15:29N 34°26' E 134°29'  
2018-Jun-11 06:30N 34°43' E 134°35'3 0.3
2018-Jun-10 19:17N 34°45' E 134°38'0 0.4
2018-Jun-10 19:00N 34°45' E 134°38'0 0.0
2018-Jun-10 18:28N 34°45' E 134°38'0 0.0
2018-Jun-10 17:58N 34°45' E 134°38'0 0.0
2018-Jun-10 17:28N 34°45' E 134°38'0 0.0
2018-Jun-10 16:58N 34°45' E 134°38'0 0.0
2018-Jun-10 16:28N 34°44' E 134°38'0 0.0
2018-Jun-10 12:19N 34°45' E 134°38'0 0.0
2018-Jun-10 11:58N 34°45' E 134°38'0 0.0
2018-Jun-10 11:22N 34°45' E 134°38'0 0.0
2018-Jun-10 09:46N 34°45' E 134°38'0 0.2
2018-Jun-10 09:29N 34°45' E 134°38'610.3
2018-Jun-10 08:53N 34°43' E 134°31'  
2018-Jun-06 17:30N 34°25' E 134°13'813.4
2018-Jun-06 16:54N 34°25' E 134°22'613.4
2018-Jun-06 16:30N 34°27' E 134°28'713.3
2018-Jun-06 16:00N 34°30' E 134°36'713.7
2018-Jun-06 15:30N 34°32' E 134°44'714.0
2018-Jun-06 15:01N 34°35' E 134°51'714.2
2018-Jun-06 14:30N 34°38' E 134°59'713.5
2018-Jun-06 14:00N 34°36' E 135°07'510.6
2018-Jun-06 13:30N 34°32' E 135°11'612.8
2018-Jun-06 13:00N 34°27' E 135°07'713.0
2018-Jun-06 12:30N 34°21' E 135°02'611.9
2018-Jun-06 12:00N 34°16' E 134°59'611.2
2018-Jun-06 11:30N 34°10' E 134°60'612.9
2018-Jun-06 11:00N 34°04' E 135°01'713.1
2018-Jun-06 10:29N 33°57' E 135°01'612.4
2018-Jun-06 09:59N 33°51' E 135°03'  
Track history (hours):
 
Tides and Currents Weather Stations Pressure Air Temp Water Temp Dewpoint Dewpoint Depression Visibility Wind Speed Wind Dir Waves Ship Positions

Seisyu Maru

Last reported at 2018-Jun-15 21:42 UTC. Time now 2018-Jun-25 11:22 UTC.
Position N 33°48' E 135°04'.
Warning: this ship's position is 9 days out of date.

Length 84 m; draft 4.5 m.

Type: Cargo ship. MMSI: 431006647.

Date/timePositionNaut miles runAvg speedWind from/ knotsBaromVisibWave heightAir tempDewpointWater temp
2018-Jun-15 21:42N 33°48' E 135°04'313.1
2018-Jun-15 21:31N 33°50' E 135°02'612.1
2018-Jun-15 21:00N 33°56' E 134°60'612.6
2018-Jun-15 20:30N 34°02' E 134°58'612.8
2018-Jun-15 20:00N 34°08' E 134°59'714.4
2018-Jun-15 19:30N 34°15' E 134°58'713.2
2018-Jun-15 19:00N 34°22' E 134°60'713.0
2018-Jun-15 18:31N 34°28' E 135°01'713.4
2018-Jun-15 18:01N 34°35' E 135°03'610.9
2018-Jun-15 17:29N 34°35' E 134°56'612.2
2018-Jun-15 17:01N 34°33' E 134°49'612.3
2018-Jun-15 16:31N 34°30' E 134°43'612.1
2018-Jun-15 16:01N 34°28' E 134°36'612.1
2018-Jun-15 15:29N 34°26' E 134°29'  
2018-Jun-11 06:30N 34°43' E 134°35'3 0.3
2018-Jun-10 19:17N 34°45' E 134°38'0 0.4
2018-Jun-10 19:00N 34°45' E 134°38'0 0.0
2018-Jun-10 18:28N 34°45' E 134°38'0 0.0
2018-Jun-10 17:58N 34°45' E 134°38'0 0.0
2018-Jun-10 17:28N 34°45' E 134°38'0 0.0
2018-Jun-10 16:58N 34°45' E 134°38'0 0.0
2018-Jun-10 16:28N 34°44' E 134°38'0 0.0
2018-Jun-10 12:19N 34°45' E 134°38'0 0.0
2018-Jun-10 11:58N 34°45' E 134°38'0 0.0
2018-Jun-10 11:22N 34°45' E 134°38'0 0.0
2018-Jun-10 09:46N 34°45' E 134°38'0 0.2
2018-Jun-10 09:29N 34°45' E 134°38'610.3
2018-Jun-10 08:53N 34°43' E 134°31'  
2018-Jun-06 17:30N 34°25' E 134°13'813.4
2018-Jun-06 16:54N 34°25' E 134°22'613.4
2018-Jun-06 16:30N 34°27' E 134°28'713.3
2018-Jun-06 16:00N 34°30' E 134°36'713.7
2018-Jun-06 15:30N 34°32' E 134°44'714.0
2018-Jun-06 15:01N 34°35' E 134°51'714.2
2018-Jun-06 14:30N 34°38' E 134°59'713.5
2018-Jun-06 14:00N 34°36' E 135°07'510.6
2018-Jun-06 13:30N 34°32' E 135°11'612.8
2018-Jun-06 13:00N 34°27' E 135°07'713.0
2018-Jun-06 12:30N 34°21' E 135°02'611.9
2018-Jun-06 12:00N 34°16' E 134°59'611.2
2018-Jun-06 11:30N 34°10' E 134°60'612.9
2018-Jun-06 11:00N 34°04' E 135°01'713.1
2018-Jun-06 10:29N 33°57' E 135°01'612.4
2018-Jun-06 09:59N 33°51' E 135°03'  

Dump ship's entire track history